createdAt,value
2022-09-04T00:01:30.826Z,100.00
2022-09-04T00:04:39.420Z,100.00
2022-09-04T00:07:26.878Z,100.00
2022-09-04T00:10:42.021Z,100.00
2022-09-04T00:13:27.567Z,100.00
2022-09-04T00:16:17.011Z,100.00
2022-09-04T00:19:21.894Z,100.00
2022-09-04T00:22:02.201Z,100.00
2022-09-04T00:24:39.609Z,100.00
2022-09-04T00:27:27.020Z,100.00
2022-09-04T00:30:11.558Z,100.00
2022-09-04T00:33:19.154Z,100.00
2022-09-04T00:35:59.867Z,100.00
2022-09-04T00:38:34.906Z,100.00
2022-09-04T00:41:42.482Z,100.00
2022-09-04T00:44:59.014Z,100.00
2022-09-04T00:47:44.799Z,100.00
2022-09-04T00:50:54.849Z,100.00
2022-09-04T00:54:23.205Z,100.00
2022-09-04T00:57:24.038Z,100.00
2022-09-04T01:00:08.125Z,100.00
2022-09-04T01:03:23.401Z,100.00
2022-09-04T01:06:41.693Z,100.00
2022-09-04T01:09:52.007Z,100.00
2022-09-04T01:12:27.856Z,100.00
2022-09-04T01:15:24.653Z,100.00
2022-09-04T01:18:17.460Z,100.00
2022-09-04T01:21:18.761Z,100.00
2022-09-04T01:24:29.701Z,100.00
2022-09-04T01:27:06.028Z,100.00
2022-09-04T01:30:05.713Z,100.00
2022-09-04T01:33:19.518Z,100.00
2022-09-04T01:36:02.058Z,100.00
2022-09-04T01:38:51.737Z,100.00
2022-09-04T01:42:08.561Z,100.00
2022-09-04T01:44:36.937Z,100.00
2022-09-04T01:47:29.081Z,100.00
2022-09-04T01:50:17.270Z,100.00
2022-09-04T01:53:17.950Z,100.00
2022-09-04T01:56:09.678Z,100.00
2022-09-04T01:59:33.096Z,100.00
2022-09-04T02:02:22.542Z,100.00
2022-09-04T02:05:28.973Z,100.00
2022-09-04T02:08:11.384Z,100.00
2022-09-04T02:11:28.207Z,100.00
2022-09-04T02:14:43.964Z,100.00
2022-09-04T02:17:38.299Z,100.00
2022-09-04T02:20:30.523Z,100.00
2022-09-04T02:23:32.720Z,100.00
2022-09-04T02:26:03.779Z,100.00
2022-09-04T02:28:45.709Z,100.00
2022-09-04T02:31:22.008Z,100.00
2022-09-04T02:34:09.043Z,100.00
2022-09-04T02:37:08.234Z,100.00
2022-09-04T02:40:16.294Z,100.00
2022-09-04T02:43:19.775Z,100.00
2022-09-04T02:46:18.820Z,100.00
2022-09-04T02:49:07.624Z,100.00
2022-09-04T02:52:01.816Z,100.00
2022-09-04T02:55:20.775Z,100.00
2022-09-04T02:58:23.576Z,100.00
2022-09-04T03:01:31.133Z,100.00
2022-09-04T03:04:13.036Z,100.00
2022-09-04T03:06:48.984Z,100.00
2022-09-04T03:09:51.772Z,100.00
2022-09-04T03:12:52.255Z,100.00
2022-09-04T03:15:50.646Z,100.00
2022-09-04T03:18:29.887Z,100.00
2022-09-04T03:21:06.315Z,100.00
2022-09-04T03:23:46.714Z,100.00
2022-09-04T03:26:47.107Z,100.00
2022-09-04T03:29:30.075Z,100.00
2022-09-04T03:32:28.897Z,100.00
2022-09-04T03:35:20.951Z,100.00
2022-09-04T03:38:33.913Z,100.00
2022-09-04T03:42:10.767Z,100.00
2022-09-04T03:45:18.305Z,100.00
2022-09-04T03:48:09.298Z,100.00
2022-09-04T03:50:57.749Z,100.00
2022-09-04T03:53:48.875Z,100.00
2022-09-04T03:56:45.713Z,100.00
2022-09-04T03:59:46.541Z,100.00
2022-09-04T04:02:46.693Z,100.00
2022-09-04T04:05:40.948Z,100.00
2022-09-04T04:08:35.946Z,100.00
2022-09-04T04:11:44.979Z,100.00
2022-09-04T04:14:42.443Z,100.00
2022-09-04T04:17:40.066Z,100.00
2022-09-04T04:20:14.216Z,100.00
2022-09-04T04:23:02.989Z,100.00
2022-09-04T04:25:52.578Z,100.00
2022-09-04T04:28:56.274Z,100.00
2022-09-04T04:31:44.486Z,100.00
2022-09-04T04:34:32.938Z,100.00
2022-09-04T04:37:32.252Z,100.00
2022-09-04T04:40:19.584Z,100.00
2022-09-04T04:42:58.820Z,100.00
2022-09-04T04:46:16.236Z,100.00
2022-09-04T04:49:10.562Z,100.00
2022-09-04T04:52:27.556Z,100.00
2022-09-04T04:55:31.318Z,100.00
2022-09-04T04:58:38.863Z,100.00
2022-09-04T05:01:34.309Z,100.00
2022-09-04T05:04:23.066Z,100.00
2022-09-04T05:07:02.028Z,100.00
2022-09-04T05:09:50.693Z,100.00
2022-09-04T05:13:13.884Z,100.00
2022-09-04T05:16:09.307Z,100.00
2022-09-04T05:19:15.603Z,100.00
2022-09-04T05:22:16.724Z,100.00
2022-09-04T05:25:01.293Z,100.00
2022-09-04T05:27:53.046Z,100.00
2022-09-04T05:30:42.575Z,100.00
2022-09-04T05:33:44.311Z,100.00
2022-09-04T05:36:32.316Z,100.00
2022-09-04T05:39:44.857Z,100.00
2022-09-04T05:42:41.758Z,100.00
2022-09-04T05:45:20.835Z,100.00
2022-09-04T05:48:16.494Z,100.00
2022-09-04T05:51:07.104Z,100.00
2022-09-04T05:54:00.978Z,100.00
2022-09-04T05:57:19.140Z,100.00
2022-09-04T06:00:01.328Z,100.00
2022-09-04T06:02:53.083Z,100.00
2022-09-04T06:06:12.797Z,100.00
2022-09-04T06:09:09.209Z,100.00
2022-09-04T06:12:05.113Z,100.00
2022-09-04T06:14:57.523Z,100.00
2022-09-04T06:17:51.383Z,100.00
2022-09-04T06:20:23.873Z,100.00
2022-09-04T06:23:51.586Z,100.00
2022-09-04T06:26:38.829Z,100.00
2022-09-04T06:30:01.930Z,100.00
2022-09-04T06:33:08.904Z,100.00
2022-09-04T06:36:12.008Z,100.00
2022-09-04T06:39:03.968Z,100.00
2022-09-04T06:42:02.626Z,100.00
2022-09-04T06:45:04.037Z,100.00
2022-09-04T06:47:52.062Z,100.00
2022-09-04T06:51:08.900Z,100.00
2022-09-04T06:54:25.168Z,100.00
2022-09-04T06:57:08.308Z,100.00
2022-09-04T06:59:56.531Z,100.00
2022-09-04T07:02:57.355Z,100.00
2022-09-04T07:05:54.686Z,100.00
2022-09-04T07:08:49.889Z,100.00
2022-09-04T07:11:47.935Z,100.00
2022-09-04T07:14:27.681Z,100.00
2022-09-04T07:17:22.031Z,100.00
2022-09-04T07:20:25.815Z,100.00
2022-09-04T07:23:49.909Z,100.00
2022-09-04T07:26:47.857Z,100.00
2022-09-04T07:29:41.520Z,100.00
2022-09-04T07:32:24.954Z,100.00
2022-09-04T07:35:36.899Z,100.00
2022-09-04T07:38:40.520Z,100.00
2022-09-04T07:41:42.131Z,100.00
2022-09-04T07:45:05.511Z,100.00
2022-09-04T07:48:19.577Z,100.00
2022-09-04T07:51:10.219Z,100.00
2022-09-04T07:54:23.026Z,97.59
2022-09-04T07:57:33.034Z,94.07
2022-09-04T08:00:13.143Z,92.30
2022-09-04T08:03:22.232Z,89.82
2022-09-04T08:06:56.569Z,87.16
2022-09-04T08:10:04.366Z,82.45
2022-09-04T08:13:13.496Z,80.24
2022-09-04T08:16:30.062Z,77.56
2022-09-04T08:19:45.523Z,76.57
2022-09-04T08:22:28.234Z,74.43
2022-09-04T08:25:04.055Z,71.84
2022-09-04T08:28:02.828Z,71.88
2022-09-04T08:30:59.383Z,70.29
2022-09-04T08:34:10.539Z,69.92
2022-09-04T08:37:34.519Z,67.71
2022-09-04T08:40:36.483Z,65.95
2022-09-04T08:43:34.478Z,67.57
2022-09-04T08:46:30.168Z,64.83
2022-09-04T08:49:45.125Z,63.90
2022-09-04T08:52:55.794Z,61.96
2022-09-04T08:55:50.844Z,64.58
2022-09-04T08:59:05.090Z,59.98
2022-09-04T09:02:08.795Z,61.10
2022-09-04T09:05:00.150Z,62.87
2022-09-04T09:08:02.914Z,61.51
2022-09-04T09:11:04.633Z,61.91
2022-09-04T09:14:31.759Z,62.22
2022-09-04T09:17:38.400Z,61.23
2022-09-04T09:20:43.067Z,62.27
2022-09-04T09:23:19.696Z,62.81
2022-09-04T09:26:11.705Z,65.05
2022-09-04T09:29:19.256Z,60.82
2022-09-04T09:32:12.584Z,58.76
2022-09-04T09:38:48.603Z,56.03
2022-09-04T09:41:48.856Z,53.27
2022-09-04T09:44:42.616Z,52.07
2022-09-04T09:48:01.387Z,51.03
2022-09-04T09:50:55.617Z,58.77
2022-09-04T09:54:03.479Z,59.05
2022-09-04T09:57:20.943Z,60.50
2022-09-04T10:00:28.178Z,64.15
2022-09-04T10:03:49.843Z,62.12
2022-09-04T10:06:51.503Z,63.72
2022-09-04T10:10:31.763Z,63.66
2022-09-04T10:13:50.542Z,63.79
2022-09-04T10:17:32.508Z,64.13
2022-09-04T10:20:20.461Z,62.87
2022-09-04T10:23:54.615Z,62.89
2022-09-04T10:26:42.288Z,63.94
2022-09-04T10:29:57.322Z,59.89
2022-09-04T10:33:07.980Z,54.97
2022-09-04T10:35:45.259Z,54.73
2022-09-04T10:38:25.358Z,53.52
2022-09-04T10:41:14.180Z,51.10
2022-09-04T10:44:09.266Z,49.35
2022-09-04T10:47:34.989Z,48.26
2022-09-04T10:50:57.602Z,54.40
2022-09-04T10:54:21.682Z,52.60
2022-09-04T10:57:10.662Z,49.88
2022-09-04T11:00:11.484Z,54.31
2022-09-04T11:03:18.417Z,51.07
2022-09-04T11:06:37.586Z,50.05
2022-09-04T11:09:57.896Z,50.92
2022-09-04T11:13:07.130Z,48.31
2022-09-04T11:15:58.085Z,48.16
2022-09-04T11:18:59.191Z,45.90
2022-09-04T11:21:51.033Z,49.05
2022-09-04T11:25:02.244Z,47.67
2022-09-04T11:28:19.755Z,45.39
2022-09-04T11:31:15.036Z,44.45
2022-09-04T11:34:34.842Z,46.40
2022-09-04T11:37:51.253Z,44.50
2022-09-04T11:40:47.098Z,46.26
2022-09-04T11:43:42.252Z,42.64
2022-09-04T11:46:23.204Z,38.30
2022-09-04T11:49:47.961Z,40.87
2022-09-04T11:53:02.272Z,44.49
2022-09-04T11:56:32.063Z,48.08
2022-09-04T11:59:57.377Z,49.72
2022-09-04T12:02:40.879Z,49.50
2022-09-04T12:05:55.333Z,51.51
2022-09-04T12:08:57.249Z,44.07
2022-09-04T12:11:55.995Z,38.34
2022-09-04T12:14:36.901Z,35.70
2022-09-04T12:17:36.273Z,33.26
2022-09-04T12:20:34.287Z,33.37
2022-09-04T12:23:51.720Z,33.54
2022-09-04T12:26:58.114Z,34.50
2022-09-04T12:29:42.782Z,37.34
2022-09-04T12:33:08.449Z,39.68
2022-09-04T12:36:30.260Z,42.79
2022-09-04T12:39:18.382Z,43.04
2022-09-04T12:42:07.658Z,42.81
2022-09-04T12:45:24.959Z,40.66
2022-09-04T12:48:33.745Z,40.23
2022-09-04T12:51:13.992Z,41.03
2022-09-04T12:58:04.805Z,34.31
2022-09-04T13:00:48.424Z,31.61
2022-09-04T13:04:07.538Z,33.59
2022-09-04T13:07:16.328Z,33.92
2022-09-04T13:10:34.744Z,35.21
2022-09-04T13:13:47.977Z,31.65
2022-09-04T13:16:32.445Z,32.06
2022-09-04T13:19:30.640Z,35.45
2022-09-04T13:22:31.054Z,37.43
2022-09-04T13:25:06.966Z,38.20
2022-09-04T13:27:53.492Z,36.57
2022-09-04T13:30:24.372Z,37.67
2022-09-04T13:33:00.538Z,37.04
2022-09-04T13:36:00.986Z,37.80
2022-09-04T13:39:10.821Z,36.65
2022-09-04T13:42:21.124Z,37.37
2022-09-04T13:45:12.825Z,38.01
2022-09-04T13:47:54.209Z,38.64
2022-09-04T13:50:55.985Z,39.56
2022-09-04T13:53:35.789Z,39.31
2022-09-04T13:56:16.020Z,40.56
2022-09-04T13:58:51.780Z,40.84
2022-09-04T14:01:31.806Z,39.93
2022-09-04T14:04:09.931Z,40.58
2022-09-04T14:06:38.048Z,40.71
2022-09-04T14:09:06.745Z,38.04
2022-09-04T14:12:19.896Z,37.31
2022-09-04T14:15:28.637Z,37.54
2022-09-04T14:18:20.587Z,37.45
2022-09-04T14:21:37.469Z,38.67
2022-09-04T14:24:32.988Z,39.10
2022-09-04T14:27:45.859Z,35.92
2022-09-04T14:30:24.257Z,37.18
2022-09-04T14:33:19.024Z,37.92
2022-09-04T14:36:10.105Z,39.34
2022-09-04T14:39:46.945Z,40.15
2022-09-04T14:42:44.137Z,40.87
2022-09-04T14:45:59.882Z,41.25
2022-09-04T14:48:27.773Z,40.96
2022-09-04T14:51:11.364Z,41.30
2022-09-04T14:53:38.361Z,41.34
2022-09-04T14:56:21.449Z,41.37
2022-09-04T14:59:34.050Z,41.99
2022-09-04T15:02:16.411Z,42.34
2022-09-04T15:05:13.652Z,43.09
2022-09-04T15:07:46.660Z,43.41
2022-09-04T15:10:49.521Z,43.34
2022-09-04T15:13:28.231Z,42.68
2022-09-04T15:16:28.555Z,42.27
2022-09-04T15:19:28.166Z,42.90
2022-09-04T15:22:24.268Z,42.19
2022-09-04T15:25:01.191Z,43.44
2022-09-04T15:28:01.203Z,43.65
2022-09-04T15:30:44.897Z,42.88
2022-09-04T15:33:23.988Z,44.26
2022-09-04T15:36:20.408Z,42.84
2022-09-04T15:39:19.321Z,43.37
2022-09-04T15:41:49.957Z,43.61
2022-09-04T15:44:45.294Z,43.62
2022-09-04T15:47:37.615Z,43.23
2022-09-04T15:50:22.967Z,43.29
2022-09-04T15:53:25.070Z,42.96
2022-09-04T15:56:29.110Z,42.66
2022-09-04T15:59:19.413Z,43.39
2022-09-04T16:02:34.621Z,43.68
2022-09-04T16:05:41.192Z,43.16
2022-09-04T16:08:52.008Z,43.39
2022-09-04T16:12:22.298Z,43.77
2022-09-04T16:15:23.214Z,44.22
2022-09-04T16:17:57.593Z,44.68
2022-09-04T16:23:47.405Z,44.58
2022-09-04T16:27:21.696Z,45.13
2022-09-04T16:31:04.943Z,44.57
2022-09-04T16:34:03.659Z,45.10
2022-09-04T16:37:27.199Z,44.71
2022-09-04T16:47:13.094Z,44.98
2022-09-04T16:50:05.712Z,45.14
2022-09-04T16:57:28.037Z,45.20
2022-09-04T16:59:46.417Z,45.09
2022-09-04T17:02:33.538Z,45.10
2022-09-04T17:05:28.476Z,45.37
2022-09-04T17:08:17.148Z,45.87
2022-09-04T17:11:55.642Z,46.27
2022-09-04T17:15:11.632Z,46.83
2022-09-04T17:17:47.235Z,47.39
2022-09-04T17:22:40.469Z,47.41
2022-09-04T17:29:04.931Z,48.34
2022-09-04T17:29:17.725Z,49.68
2022-09-04T17:30:25.792Z,51.42
2022-09-04T17:38:53.707Z,51.92
2022-09-04T17:40:51.093Z,53.82
2022-09-04T17:43:14.809Z,54.81
2022-09-04T17:45:46.017Z,56.27
2022-09-04T17:48:27.120Z,57.18
2022-09-04T17:51:00.879Z,57.88
2022-09-04T17:53:33.463Z,59.13
2022-09-04T17:56:23.693Z,60.43
2022-09-04T17:59:40.499Z,61.92
2022-09-04T18:05:53.639Z,61.90
2022-09-04T18:08:36.818Z,62.38
2022-09-04T18:11:16.483Z,62.79
2022-09-04T18:14:13.416Z,63.66
2022-09-04T18:17:12.853Z,65.49
2022-09-04T18:20:16.355Z,66.67
2022-09-04T18:23:28.282Z,67.80
2022-09-04T18:26:42.805Z,67.87
2022-09-04T18:33:00.424Z,68.95
2022-09-04T18:37:19.633Z,69.15
2022-09-04T18:37:24.171Z,70.45
2022-09-04T18:50:22.475Z,73.42
2022-09-04T18:50:50.874Z,74.24
2022-09-04T18:52:48.044Z,73.95
2022-09-04T19:03:41.897Z,73.43
2022-09-04T19:07:41.355Z,73.31
2022-09-04T19:14:11.277Z,73.10
2022-09-04T19:17:51.067Z,74.33
2022-09-04T19:21:00.707Z,75.23
2022-09-04T19:24:02.726Z,75.46
2022-09-04T19:27:26.838Z,75.99
2022-09-04T19:30:26.904Z,76.90
2022-09-04T19:34:11.132Z,78.26
2022-09-04T19:46:00.851Z,77.77
2022-09-04T19:53:30.114Z,78.53
2022-09-04T19:56:02.136Z,78.34
2022-09-04T20:02:19.123Z,78.66
2022-09-04T20:08:29.795Z,78.23
2022-09-04T20:10:56.804Z,78.81
2022-09-04T20:17:43.709Z,80.32
2022-09-04T20:20:36.068Z,80.51
2022-09-04T20:23:50.153Z,79.95
2022-09-04T20:27:20.810Z,79.60
2022-09-04T20:29:55.199Z,78.55
2022-09-04T20:32:33.798Z,79.62
2022-09-04T20:35:32.703Z,80.00
2022-09-04T20:38:23.139Z,80.26
2022-09-04T20:41:06.770Z,80.83
2022-09-04T20:43:40.149Z,81.08
2022-09-04T20:50:34.725Z,80.84
2022-09-04T20:52:49.127Z,83.07
2022-09-04T20:52:50.479Z,82.14
2022-09-04T20:56:42.272Z,82.85
2022-09-04T21:03:12.996Z,81.37
2022-09-04T21:03:26.223Z,81.40
2022-09-04T21:06:41.027Z,81.55
2022-09-04T21:09:32.091Z,81.53
2022-09-04T21:12:12.392Z,81.21
2022-09-04T21:14:46.462Z,81.26
2022-09-04T21:17:42.551Z,81.94
2022-09-04T21:20:59.725Z,82.58
2022-09-04T21:24:03.224Z,82.24
2022-09-04T21:27:07.185Z,82.93
2022-09-04T21:30:02.579Z,82.19
2022-09-04T21:32:53.925Z,81.60
2022-09-04T21:36:25.680Z,81.75
2022-09-04T21:39:27.547Z,81.98
2022-09-04T21:42:18.551Z,83.06
2022-09-04T21:45:25.273Z,84.47
2022-09-04T21:48:40.631Z,86.09
2022-09-04T21:51:33.999Z,85.98
2022-09-04T21:54:29.863Z,85.38
2022-09-04T22:02:28.100Z,85.82
2022-09-04T22:02:41.127Z,85.93
2022-09-04T22:04:13.195Z,85.40
2022-09-04T22:11:37.186Z,85.55
2022-09-04T22:13:32.636Z,87.21
2022-09-04T22:13:43.194Z,87.53
2022-09-04T22:16:35.062Z,86.68
2022-09-04T22:19:48.833Z,86.96
2022-09-04T22:22:30.796Z,87.23
2022-09-04T22:25:41.067Z,87.61
2022-09-04T22:28:45.070Z,88.21
2022-09-04T22:31:22.377Z,89.05
2022-09-04T22:35:31.392Z,88.24
2022-09-04T22:38:31.687Z,87.68
2022-09-04T22:41:32.473Z,87.37
2022-09-04T22:44:44.469Z,88.54
2022-09-04T22:47:36.377Z,88.27
2022-09-04T22:50:50.404Z,88.50
2022-09-04T22:53:40.873Z,88.73
2022-09-04T22:56:24.241Z,89.30
2022-09-04T22:59:56.175Z,89.89
2022-09-04T23:03:07.095Z,89.88
2022-09-04T23:08:26.005Z,89.49
2022-09-04T23:13:51.733Z,90.32
2022-09-04T23:13:57.504Z,91.54
2022-09-04T23:16:46.962Z,91.69
2022-09-04T23:24:46.590Z,92.27
2022-09-04T23:26:44.826Z,91.84
2022-09-04T23:26:58.617Z,91.20
2022-09-04T23:29:59.391Z,92.06
2022-09-04T23:33:24.459Z,92.28
2022-09-04T23:36:29.653Z,93.51
2022-09-04T23:39:39.537Z,92.74
2022-09-04T23:42:24.867Z,93.05
2022-09-04T23:45:32.666Z,93.72
2022-09-04T23:48:05.328Z,93.61
2022-09-04T23:51:26.326Z,93.32
2022-09-04T23:54:51.554Z,92.83
2022-09-04T23:58:32.810Z,92.16
